sensor_id;sensor_type;location;lat;lon;timestamp;temperature;humidity
26021;DHT22;13798;48.858;9.092;2023-08-01T06:28:06;461.00;2380.80
26021;DHT22;13798;48.858;9.092;2023-08-01T07:27:29;435.20;2355.20
26021;DHT22;13798;48.858;9.092;2023-08-01T07:29:55;410.00;2099.20
26021;DHT22;13798;48.858;9.092;2023-08-01T07:32:20;409.80;2150.40
26021;DHT22;13798;48.858;9.092;2023-08-01T07:34:46;409.90;2176.00
26021;DHT22;13798;48.858;9.092;2023-08-01T07:37:11;409.70;2252.80
26021;DHT22;13798;48.858;9.092;2023-08-01T08:00:20;410.00;2278.40
26021;DHT22;13798;48.858;9.092;2023-08-01T08:02:46;410.20;2201.60
26021;DHT22;13798;48.858;9.092;2023-08-01T08:05:12;410.40;2227.20
26021;DHT22;13798;48.858;9.092;2023-08-01T08:07:38;435.20;2227.20
26021;DHT22;13798;48.858;9.092;2023-08-01T08:10:04;410.40;2201.60
26021;DHT22;13798;48.858;9.092;2023-08-01T08:12:30;410.30;2201.60
26021;DHT22;13798;48.858;9.092;2023-08-01T08:14:56;410.30;2278.40
26021;DHT22;13798;48.858;9.092;2023-08-01T08:17:21;410.30;2252.80
26021;DHT22;13798;48.858;9.092;2023-08-01T08:19:47;410.30;2278.40
26021;DHT22;13798;48.858;9.092;2023-08-01T08:22:12;410.20;2355.20
26021;DHT22;13798;48.858;9.092;2023-08-01T08:24:38;410.30;2278.40
26021;DHT22;13798;48.858;9.092;2023-08-01T08:27:04;410.30;2278.40
26021;DHT22;13798;48.858;9.092;2023-08-01T08:29:31;410.50;2150.40
26021;DHT22;13798;48.858;9.092;2023-08-01T08:31:56;410.50;2201.60
26021;DHT22;13798;48.858;9.092;2023-08-01T08:34:22;435.20;2176.00
26021;DHT22;13798;48.858;9.092;2023-08-01T08:36:47;435.20;2150.40
26021;DHT22;13798;48.858;9.092;2023-08-01T08:39:15;435.50;2124.80
26021;DHT22;13798;48.858;9.092;2023-08-01T08:41:50;435.30;1996.80
26021;DHT22;13798;48.858;9.092;2023-08-01T08:44:18;435.70;2099.20
26021;DHT22;13798;48.858;9.092;2023-08-01T08:46:52;435.90;2022.40
26021;DHT22;13798;48.858;9.092;2023-08-01T08:49:18;435.80;2355.20
26021;DHT22;13798;48.858;9.092;2023-08-01T08:51:46;435.90;1971.20
26021;DHT22;13798;48.858;9.092;2023-08-01T08:54:13;436.10;2355.20
26021;DHT22;13798;48.858;9.092;2023-08-01T08:56:39;436.10;2355.20
26021;DHT22;13798;48.858;9.092;2023-08-01T08:59:09;460.90;2380.80
26021;DHT22;13798;48.858;9.092;2023-08-01T09:01:39;460.80;2380.80
26021;DHT22;13798;48.858;9.092;2023-08-01T09:04:05;436.00;2355.20
26021;DHT22;13798;48.858;9.092;2023-08-01T09:06:52;435.90;2355.20
26021;DHT22;13798;48.858;9.092;2023-08-01T09:09:26;436.00;2355.20
26021;DHT22;13798;48.858;9.092;2023-08-01T09:11:53;435.80;2355.20
26021;DHT22;13798;48.858;9.092;2023-08-01T09:14:21;435.80;2355.20
26021;DHT22;13798;48.858;9.092;2023-08-01T09:16:46;435.80;1971.20
26021;DHT22;13798;48.858;9.092;2023-08-01T09:19:17;435.50;2048.00
26021;DHT22;13798;48.858;9.092;2023-08-01T09:21:43;435.80;2099.20
26021;DHT22;13798;48.858;9.092;2023-08-01T09:24:16;435.80;2073.60
26021;DHT22;13798;48.858;9.092;2023-08-01T09:26:43;435.80;2073.60
26021;DHT22;13798;48.858;9.092;2023-08-01T09:29:08;435.80;2124.80
26021;DHT22;13798;48.858;9.092;2023-08-01T09:31:41;435.80;2176.00
26021;DHT22;13798;48.858;9.092;2023-08-01T09:34:22;435.90;2201.60
26021;DHT22;13798;48.858;9.092;2023-08-01T09:36:48;435.60;2278.40
26021;DHT22;13798;48.858;9.092;2023-08-01T09:39:18;435.60;2329.60
26021;DHT22;13798;48.858;9.092;2023-08-01T09:41:44;435.80;2329.60
26021;DHT22;13798;48.858;9.092;2023-08-01T09:44:16;436.00;2278.40
26021;DHT22;13798;48.858;9.092;2023-08-01T09:46:42;436.10;2227.20
26021;DHT22;13798;48.858;9.092;2023-08-01T09:49:10;436.10;2252.80
26021;DHT22;13798;48.858;9.092;2023-08-01T09:51:49;436.10;2124.80
26021;DHT22;13798;48.858;9.092;2023-08-01T09:54:19;460.80;2201.60
26021;DHT22;13798;48.858;9.092;2023-08-01T09:56:47;460.80;2048.00
26021;DHT22;13798;48.858;9.092;2023-08-01T09:59:19;461.00;2073.60
26021;DHT22;13798;48.858;9.092;2023-08-01T10:01:47;460.80;2176.00
26021;DHT22;13798;48.858;9.092;2023-08-01T10:04:14;461.00;2227.20
26021;DHT22;13798;48.858;9.092;2023-08-01T10:06:43;461.10;2150.40
26021;DHT22;13798;48.858;9.092;2023-08-01T10:09:12;461.30;2124.80
26021;DHT22;13798;48.858;9.092;2023-08-01T10:11:39;461.20;2380.80
26021;DHT22;13798;48.858;9.092;2023-08-01T10:14:06;461.10;2124.80
26021;DHT22;13798;48.858;9.092;2023-08-01T10:16:33;461.10;2124.80
26021;DHT22;13798;48.858;9.092;2023-08-01T10:18:59;461.20;2073.60
26021;DHT22;13798;48.858;9.092;2023-08-01T10:21:26;461.20;1996.80
26021;DHT22;13798;48.858;9.092;2023-08-01T10:23:54;461.30;2380.80
26021;DHT22;13798;48.858;9.092;2023-08-01T10:26:20;461.10;2380.80
26021;DHT22;13798;48.858;9.092;2023-08-01T10:28:55;461.00;2380.80
26021;DHT22;13798;48.858;9.092;2023-08-01T10:31:22;460.90;2380.80
26021;DHT22;13798;48.858;9.092;2023-08-01T10:33:49;460.80;2380.80
26021;DHT22;13798;48.858;9.092;2023-08-01T10:36:19;461.10;2380.80
26021;DHT22;13798;48.858;9.092;2023-08-01T10:38:57;486.40;2380.80
26021;DHT22;13798;48.858;9.092;2023-08-01T10:41:28;487.10;2380.80
26021;DHT22;13798;48.858;9.092;2023-08-01T10:44:14;487.10;2380.80
26021;DHT22;13798;48.858;9.092;2023-08-01T10:46:51;512.20;2380.80
26021;DHT22;13798;48.858;9.092;2023-08-01T10:49:18;512.40;2380.80
26021;DHT22;13798;48.858;9.092;2023-08-01T10:51:44;512.20;2380.80
26021;DHT22;13798;48.858;9.092;2023-08-01T10:54:23;486.70;2380.80
26021;DHT22;13798;48.858;9.092;2023-08-01T10:56:53;486.70;2380.80
26021;DHT22;13798;48.858;9.092;2023-08-01T10:59:20;487.30;2380.80
26021;DHT22;13798;48.858;9.092;2023-08-01T11:01:52;512.30;2380.80
26021;DHT22;13798;48.858;9.092;2023-08-01T11:04:22;512.50;2380.80
26021;DHT22;13798;48.858;9.092;2023-08-01T11:06:50;512.60;2380.80
26021;DHT22;13798;48.858;9.092;2023-08-01T11:09:24;512.80;2380.80
26021;DHT22;13798;48.858;9.092;2023-08-01T11:11:58;537.60;2406.40
26021;DHT22;13798;48.858;9.092;2023-08-01T11:14:29;537.70;2406.40
26021;DHT22;13798;48.858;9.092;2023-08-01T11:17:15;537.60;2406.40
26021;DHT22;13798;48.858;9.092;2023-08-01T11:19:41;512.50;2380.80
26021;DHT22;13798;48.858;9.092;2023-08-01T11:22:09;512.50;2380.80
26021;DHT22;13798;48.858;9.092;2023-08-01T11:24:35;512.40;2380.80
26021;DHT22;13798;48.858;9.092;2023-08-01T11:27:01;512.40;2380.80
26021;DHT22;13798;48.858;9.092;2023-08-01T11:29:27;537.80;2406.40
26021;DHT22;13798;48.858;9.092;2023-08-01T11:31:55;538.30;2406.40
26021;DHT22;13798;48.858;9.092;2023-08-01T11:34:21;512.90;2380.80
26021;DHT22;13798;48.858;9.092;2023-08-01T11:36:47;512.50;2380.80
26021;DHT22;13798;48.858;9.092;2023-08-01T11:39:16;512.70;2380.80
26021;DHT22;13798;48.858;9.092;2023-08-01T11:41:43;538.00;2406.40
26021;DHT22;13798;48.858;9.092;2023-08-01T11:44:09;538.30;2406.40
26021;DHT22;13798;48.858;9.092;2023-08-01T11:46:38;538.00;2406.40
26021;DHT22;13798;48.858;9.092;2023-08-01T11:49:07;563.30;2432.00
26021;DHT22;13798;48.858;9.092;2023-08-01T11:51:41;538.30;2406.40
26021;DHT22;13798;48.858;9.092;2023-08-01T11:54:06;538.20;2406.40
26021;DHT22;13798;48.858;9.092;2023-08-01T11:56:33;538.50;2406.40
26021;DHT22;13798;48.858;9.092;2023-08-01T11:58:59;563.60;2432.00
26021;DHT22;13798;48.858;9.092;2023-08-01T12:01:25;538.30;2406.40
26021;DHT22;13798;48.858;9.092;2023-08-01T12:03:52;537.90;2406.40
26021;DHT22;13798;48.858;9.092;2023-08-01T12:06:22;538.30;2406.40
26021;DHT22;13798;48.858;9.092;2023-08-01T12:08:50;563.40;2432.00
26021;DHT22;13798;48.858;9.092;2023-08-01T12:11:26;589.00;2432.00
26021;DHT22;13798;48.858;9.092;2023-08-01T12:14:13;563.80;2432.00
26021;DHT22;13798;48.858;9.092;2023-08-01T12:16:45;563.60;2432.00
26021;DHT22;13798;48.858;9.092;2023-08-01T12:19:16;563.70;2432.00
26021;DHT22;13798;48.858;9.092;2023-08-01T12:21:42;563.90;2432.00
26021;DHT22;13798;48.858;9.092;2023-08-01T12:24:07;563.60;2432.00
26021;DHT22;13798;48.858;9.092;2023-08-01T12:26:33;564.10;2432.00
26021;DHT22;13798;48.858;9.092;2023-08-01T12:28:58;589.10;2432.00
26021;DHT22;13798;48.858;9.092;2023-08-01T12:31:24;589.30;2432.00
26021;DHT22;13798;48.858;9.092;2023-08-01T12:33:50;564.10;2432.00
26021;DHT22;13798;48.858;9.092;2023-08-01T12:36:15;589.20;2432.00
26021;DHT22;13798;48.858;9.092;2023-08-01T12:38:41;564.10;2432.00
26021;DHT22;13798;48.858;9.092;2023-08-01T12:41:07;563.90;2432.00
26021;DHT22;13798;48.858;9.092;2023-08-01T12:43:33;589.00;2432.00
26021;DHT22;13798;48.858;9.092;2023-08-01T12:45:58;563.80;2432.00
26021;DHT22;13798;48.858;9.092;2023-08-01T12:48:25;589.10;2432.00
26021;DHT22;13798;48.858;9.092;2023-08-01T12:50:51;589.00;2432.00
26021;DHT22;13798;48.858;9.092;2023-08-01T12:53:16;589.50;2432.00
26021;DHT22;13798;48.858;9.092;2023-08-01T12:55:46;589.40;2432.00
26021;DHT22;13798;48.858;9.092;2023-08-01T12:58:12;589.20;2432.00
26021;DHT22;13798;48.858;9.092;2023-08-01T13:00:39;589.50;2432.00
26021;DHT22;13798;48.858;9.092;2023-08-01T13:03:05;589.00;2432.00
26021;DHT22;13798;48.858;9.092;2023-08-01T13:05:34;564.00;2432.00
26021;DHT22;13798;48.858;9.092;2023-08-01T13:07:59;563.90;2432.00
26021;DHT22;13798;48.858;9.092;2023-08-01T13:10:24;589.50;2432.00
26021;DHT22;13798;48.858;9.092;2023-08-01T13:12:50;588.90;2432.00
26021;DHT22;13798;48.858;9.092;2023-08-01T13:15:16;589.40;2432.00
26021;DHT22;13798;48.858;9.092;2023-08-01T13:17:41;614.40;2432.00
26021;DHT22;13798;48.858;9.092;2023-08-01T13:20:07;614.70;2432.00
26021;DHT22;13798;48.858;9.092;2023-08-01T13:22:33;614.60;2432.00
26021;DHT22;13798;48.858;9.092;2023-08-01T13:24:58;589.20;2432.00
26021;DHT22;13798;48.858;9.092;2023-08-01T13:27:24;614.40;2432.00
26021;DHT22;13798;48.858;9.092;2023-08-01T13:29:49;614.60;2432.00
26021;DHT22;13798;48.858;9.092;2023-08-01T13:32:18;615.20;2432.00
26021;DHT22;13798;48.858;9.092;2023-08-01T13:34:43;589.60;2432.00
26021;DHT22;13798;48.858;9.092;2023-08-01T13:37:08;589.70;2432.00
26021;DHT22;13798;48.858;9.092;2023-08-01T13:39:34;614.40;2432.00
26021;DHT22;13798;48.858;9.092;2023-08-01T13:42:00;614.80;2432.00
26021;DHT22;13798;48.858;9.092;2023-08-01T13:44:26;614.70;2432.00
26021;DHT22;13798;48.858;9.092;2023-08-01T13:46:51;640.40;2432.00
26021;DHT22;13798;48.858;9.092;2023-08-01T17:53:18;537.80;2406.40
26021;DHT22;13798;48.858;9.092;2023-08-01T17:55:44;537.90;2406.40
26021;DHT22;13798;48.858;9.092;2023-08-01T17:58:10;537.90;2406.40
26021;DHT22;13798;48.858;9.092;2023-08-01T18:00:35;537.90;2406.40
26021;DHT22;13798;48.858;9.092;2023-08-01T18:03:01;512.70;2380.80
26021;DHT22;13798;48.858;9.092;2023-08-01T18:05:26;512.80;2380.80
26021;DHT22;13798;48.858;9.092;2023-08-01T18:07:52;537.60;2406.40
26021;DHT22;13798;48.858;9.092;2023-08-01T18:10:17;537.60;2406.40
26021;DHT22;13798;48.858;9.092;2023-08-01T18:12:46;512.80;2380.80
26021;DHT22;13798;48.858;9.092;2023-08-01T18:15:12;512.80;2380.80
26021;DHT22;13798;48.858;9.092;2023-08-01T18:17:38;512.50;2380.80
26021;DHT22;13798;48.858;9.092;2023-08-01T18:20:04;512.40;2380.80
26021;DHT22;13798;48.858;9.092;2023-08-01T18:22:30;512.40;2380.80
26021;DHT22;13798;48.858;9.092;2023-08-01T18:24:55;512.10;2380.80
26021;DHT22;13798;48.858;9.092;2023-08-01T18:27:21;512.10;2380.80
26021;DHT22;13798;48.858;9.092;2023-08-01T18:29:46;487.30;2380.80
26021;DHT22;13798;48.858;9.092;2023-08-01T18:32:12;487.30;2380.80
26021;DHT22;13798;48.858;9.092;2023-08-01T18:34:38;512.10;2380.80
26021;DHT22;13798;48.858;9.092;2023-08-01T18:37:03;487.20;2380.80
26021;DHT22;13798;48.858;9.092;2023-08-01T18:39:29;487.30;2380.80
26021;DHT22;13798;48.858;9.092;2023-08-01T18:41:54;487.00;2380.80
26021;DHT22;13798;48.858;9.092;2023-08-01T18:44:20;487.20;2380.80
26021;DHT22;13798;48.858;9.092;2023-08-01T18:46:46;487.10;2380.80
26021;DHT22;13798;48.858;9.092;2023-08-01T18:49:13;487.10;2380.80
26021;DHT22;13798;48.858;9.092;2023-08-01T18:51:39;486.80;2380.80
26021;DHT22;13798;48.858;9.092;2023-08-01T18:54:04;486.60;2380.80
26021;DHT22;13798;48.858;9.092;2023-08-01T18:56:31;486.80;2380.80
26021;DHT22;13798;48.858;9.092;2023-08-01T18:58:57;486.40;2380.80
26021;DHT22;13798;48.858;9.092;2023-08-01T19:01:23;486.50;2380.80
26021;DHT22;13798;48.858;9.092;2023-08-01T19:03:52;486.40;2380.80
26021;DHT22;13798;48.858;9.092;2023-08-01T19:06:18;486.50;2380.80
26021;DHT22;13798;48.858;9.092;2023-08-01T19:08:45;486.40;2380.80
26021;DHT22;13798;48.858;9.092;2023-08-01T19:11:11;486.40;2380.80
26021;DHT22;13798;48.858;9.092;2023-08-01T19:13:36;461.50;2380.80
26021;DHT22;13798;48.858;9.092;2023-08-01T19:16:02;461.70;2380.80
26021;DHT22;13798;48.858;9.092;2023-08-01T19:18:28;461.70;2380.80
26021;DHT22;13798;48.858;9.092;2023-08-01T19:20:54;461.60;2380.80
26021;DHT22;13798;48.858;9.092;2023-08-01T19:23:21;461.50;2380.80
26021;DHT22;13798;48.858;9.092;2023-08-01T19:25:46;461.40;2380.80
26021;DHT22;13798;48.858;9.092;2023-08-01T19:28:12;461.50;2380.80
26021;DHT22;13798;48.858;9.092;2023-08-01T19:30:40;461.40;2380.80
26021;DHT22;13798;48.858;9.092;2023-08-01T19:33:06;461.40;2380.80
26021;DHT22;13798;48.858;9.092;2023-08-01T19:35:32;461.40;2380.80
26021;DHT22;13798;48.858;9.092;2023-08-01T19:37:57;461.50;2380.80
26021;DHT22;13798;48.858;9.092;2023-08-01T19:40:23;461.50;2380.80
26021;DHT22;13798;48.858;9.092;2023-08-01T19:42:48;461.50;2380.80
26021;DHT22;13798;48.858;9.092;2023-08-01T19:45:14;461.50;2380.80
26021;DHT22;13798;48.858;9.092;2023-08-01T19:47:39;461.50;2380.80
26021;DHT22;13798;48.858;9.092;2023-08-01T19:50:05;461.60;2380.80
26021;DHT22;13798;48.858;9.092;2023-08-01T19:52:37;461.50;2380.80
26021;DHT22;13798;48.858;9.092;2023-08-01T19:55:03;461.40;2380.80
26021;DHT22;13798;48.858;9.092;2023-08-01T19:57:30;461.40;2380.80
26021;DHT22;13798;48.858;9.092;2023-08-01T19:59:56;461.50;2380.80
26021;DHT22;13798;48.858;9.092;2023-08-01T20:02:21;461.40;2380.80
26021;DHT22;13798;48.858;9.092;2023-08-01T20:04:48;461.30;2380.80
26021;DHT22;13798;48.858;9.092;2023-08-01T20:07:13;461.30;2380.80
26021;DHT22;13798;48.858;9.092;2023-08-01T20:09:39;461.00;2380.80
26021;DHT22;13798;48.858;9.092;2023-08-01T20:12:05;461.10;2380.80
26021;DHT22;13798;48.858;9.092;2023-08-01T20:14:30;461.10;2380.80
26021;DHT22;13798;48.858;9.092;2023-08-01T20:16:56;461.00;2380.80
26021;DHT22;13798;48.858;9.092;2023-08-01T20:19:21;461.10;2380.80
26021;DHT22;13798;48.858;9.092;2023-08-01T20:21:47;461.00;2380.80
26021;DHT22;13798;48.858;9.092;2023-08-01T20:24:12;461.20;2380.80
26021;DHT22;13798;48.858;9.092;2023-08-01T20:26:38;461.20;2380.80
26021;DHT22;13798;48.858;9.092;2023-08-01T20:29:03;461.40;2380.80
26021;DHT22;13798;48.858;9.092;2023-08-01T20:31:30;461.10;2380.80
26021;DHT22;13798;48.858;9.092;2023-08-01T20:33:55;461.20;2380.80
26021;DHT22;13798;48.858;9.092;2023-08-01T20:36:21;461.00;2380.80
26021;DHT22;13798;48.858;9.092;2023-08-01T20:38:47;461.00;2380.80
26021;DHT22;13798;48.858;9.092;2023-08-01T20:41:16;460.90;2380.80
26021;DHT22;13798;48.858;9.092;2023-08-01T20:43:41;436.10;2355.20
26021;DHT22;13798;48.858;9.092;2023-08-01T20:46:07;436.10;2355.20
26021;DHT22;13798;48.858;9.092;2023-08-01T20:48:33;460.80;2380.80
26021;DHT22;13798;48.858;9.092;2023-08-01T20:51:00;460.90;2380.80
26021;DHT22;13798;48.858;9.092;2023-08-01T20:53:25;436.10;2355.20
26021;DHT22;13798;48.858;9.092;2023-08-01T20:55:51;436.00;2355.20
26021;DHT22;13798;48.858;9.092;2023-08-01T20:58:19;435.90;2355.20
26021;DHT22;13798;48.858;9.092;2023-08-01T21:00:45;435.90;2355.20
26021;DHT22;13798;48.858;9.092;2023-08-01T21:03:11;435.90;2355.20
26021;DHT22;13798;48.858;9.092;2023-08-01T21:05:36;435.60;2355.20
26021;DHT22;13798;48.858;9.092;2023-08-01T21:08:02;435.60;2355.20
26021;DHT22;13798;48.858;9.092;2023-08-01T21:10:29;435.80;2355.20
26021;DHT22;13798;48.858;9.092;2023-08-01T21:12:55;435.80;2355.20
26021;DHT22;13798;48.858;9.092;2023-08-01T21:15:21;435.90;2355.20
26021;DHT22;13798;48.858;9.092;2023-08-01T21:17:49;435.70;2355.20
26021;DHT22;13798;48.858;9.092;2023-08-01T21:20:15;435.50;2355.20
